sensor_id;sensor_type;location;lat;lon;timestamp;temperature;humidity
6439;DHT22;3252;52.540;13.290;2022-11-20T00:00:25;0.60;99.90
6439;DHT22;3252;52.540;13.290;2022-11-20T00:02:27;0.50;99.90
6439;DHT22;3252;52.540;13.290;2022-11-20T00:04:29;0.60;99.90
6439;DHT22;3252;52.540;13.290;2022-11-20T00:06:32;0.50;99.90
6439;DHT22;3252;52.540;13.290;2022-11-20T00:08:34;0.50;99.90
6439;DHT22;3252;52.540;13.290;2022-11-20T00:10:37;0.60;99.90
6439;DHT22;3252;52.540;13.290;2022-11-20T00:12:40;0.50;99.90
6439;DHT22;3252;52.540;13.290;2022-11-20T00:14:43;0.50;99.90
6439;DHT22;3252;52.540;13.290;2022-11-20T00:16:45;0.50;99.90
6439;DHT22;3252;52.540;13.290;2022-11-20T00:18:48;0.60;99.90
6439;DHT22;3252;52.540;13.290;2022-11-20T00:20:51;0.60;99.90
6439;DHT22;3252;52.540;13.290;2022-11-20T00:22:53;0.60;99.90
6439;DHT22;3252;52.540;13.290;2022-11-20T00:24:56;0.60;99.90
6439;DHT22;3252;52.540;13.290;2022-11-20T00:26:59;0.60;99.90
6439;DHT22;3252;52.540;13.290;2022-11-20T00:29:03;0.60;99.90
6439;DHT22;3252;52.540;13.290;2022-11-20T00:31:07;0.60;99.90
6439;DHT22;3252;52.540;13.290;2022-11-20T00:33:09;0.60;99.90
6439;DHT22;3252;52.540;13.290;2022-11-20T00:35:11;0.60;99.90
6439;DHT22;3252;52.540;13.290;2022-11-20T00:37:14;0.60;99.90
6439;DHT22;3252;52.540;13.290;2022-11-20T00:39:16;0.60;99.90
6439;DHT22;3252;52.540;13.290;2022-11-20T00:41:19;0.70;99.90
6439;DHT22;3252;52.540;13.290;2022-11-20T00:43:22;0.70;99.90
6439;DHT22;3252;52.540;13.290;2022-11-20T00:45:25;0.70;99.90
6439;DHT22;3252;52.540;13.290;2022-11-20T00:47:29;0.70;99.90
6439;DHT22;3252;52.540;13.290;2022-11-20T00:49:31;0.60;99.90
6439;DHT22;3252;52.540;13.290;2022-11-20T00:51:34;0.60;99.90
6439;DHT22;3252;52.540;13.290;2022-11-20T00:53:36;0.60;99.90
6439;DHT22;3252;52.540;13.290;2022-11-20T00:55:41;0.60;99.90
6439;DHT22;3252;52.540;13.290;2022-11-20T00:57:44;0.60;99.90
6439;DHT22;3252;52.540;13.290;2022-11-20T00:59:46;0.50;99.90
6439;DHT22;3252;52.540;13.290;2022-11-20T01:01:50;0.50;99.90
6439;DHT22;3252;52.540;13.290;2022-11-20T01:03:53;0.50;99.90
6439;DHT22;3252;52.540;13.290;2022-11-20T01:05:59;0.50;99.90
6439;DHT22;3252;52.540;13.290;2022-11-20T01:08:12;0.50;99.90
6439;DHT22;3252;52.540;13.290;2022-11-20T01:10:14;0.50;99.90
6439;DHT22;3252;52.540;13.290;2022-11-20T01:12:16;0.50;99.90
6439;DHT22;3252;52.540;13.290;2022-11-20T01:14:20;0.50;99.90
6439;DHT22;3252;52.540;13.290;2022-11-20T01:16:25;0.50;99.90
6439;DHT22;3252;52.540;13.290;2022-11-20T01:18:29;0.50;99.90
6439;DHT22;3252;52.540;13.290;2022-11-20T01:20:34;0.50;99.90
6439;DHT22;3252;52.540;13.290;2022-11-20T01:22:36;0.50;99.90
6439;DHT22;3252;52.540;13.290;2022-11-20T01:24:39;0.50;99.90
6439;DHT22;3252;52.540;13.290;2022-11-20T01:26:42;0.40;99.90
6439;DHT22;3252;52.540;13.290;2022-11-20T01:28:45;0.30;99.90
6439;DHT22;3252;52.540;13.290;2022-11-20T01:30:47;0.40;99.90
6439;DHT22;3252;52.540;13.290;2022-11-20T01:32:50;0.40;99.90
6439;DHT22;3252;52.540;13.290;2022-11-20T01:34:57;0.40;99.90
6439;DHT22;3252;52.540;13.290;2022-11-20T01:36:59;0.40;99.90
6439;DHT22;3252;52.540;13.290;2022-11-20T01:39:03;0.40;99.90
6439;DHT22;3252;52.540;13.290;2022-11-20T01:41:06;0.40;99.90
6439;DHT22;3252;52.540;13.290;2022-11-20T01:43:14;0.40;99.90
6439;DHT22;3252;52.540;13.290;2022-11-20T01:45:49;0.30;99.90
6439;DHT22;3252;52.540;13.290;2022-11-20T01:47:54;0.40;99.90
6439;DHT22;3252;52.540;13.290;2022-11-20T01:50:01;0.40;99.90
6439;DHT22;3252;52.540;13.290;2022-11-20T01:52:07;0.30;99.90
6439;DHT22;3252;52.540;13.290;2022-11-20T01:54:14;0.30;99.90
6439;DHT22;3252;52.540;13.290;2022-11-20T01:56:20;0.30;99.90
6439;DHT22;3252;52.540;13.290;2022-11-20T01:58:27;0.30;99.90
6439;DHT22;3252;52.540;13.290;2022-11-20T02:00:31;0.20;99.90
6439;DHT22;3252;52.540;13.290;2022-11-20T02:02:34;0.20;99.90
6439;DHT22;3252;52.540;13.290;2022-11-20T02:04:36;0.20;99.90
6439;DHT22;3252;52.540;13.290;2022-11-20T02:06:44;0.20;99.90
6439;DHT22;3252;52.540;13.290;2022-11-20T02:08:48;0.20;99.90
6439;DHT22;3252;52.540;13.290;2022-11-20T02:10:52;0.30;99.90
6439;DHT22;3252;52.540;13.290;2022-11-20T02:12:55;0.20;99.90
6439;DHT22;3252;52.540;13.290;2022-11-20T02:15:15;0.20;99.90
6439;DHT22;3252;52.540;13.290;2022-11-20T02:17:18;0.20;99.90
6439;DHT22;3252;52.540;13.290;2022-11-20T02:19:23;0.20;99.90
6439;DHT22;3252;52.540;13.290;2022-11-20T02:21:35;0.20;99.90
6439;DHT22;3252;52.540;13.290;2022-11-20T02:23:55;0.20;99.90
6439;DHT22;3252;52.540;13.290;2022-11-20T02:26:01;0.20;99.90
6439;DHT22;3252;52.540;13.290;2022-11-20T02:28:05;0.20;99.90
6439;DHT22;3252;52.540;13.290;2022-11-20T02:30:09;0.20;99.90
6439;DHT22;3252;52.540;13.290;2022-11-20T02:32:18;0.20;99.90
6439;DHT22;3252;52.540;13.290;2022-11-20T02:34:21;0.20;99.90
6439;DHT22;3252;52.540;13.290;2022-11-20T02:36:25;0.20;99.90
6439;DHT22;3252;52.540;13.290;2022-11-20T02:38:28;0.20;99.90
6439;DHT22;3252;52.540;13.290;2022-11-20T02:40:32;0.20;99.90
6439;DHT22;3252;52.540;13.290;2022-11-20T02:42:34;0.20;99.90
6439;DHT22;3252;52.540;13.290;2022-11-20T02:44:37;0.20;99.90
6439;DHT22;3252;52.540;13.290;2022-11-20T02:46:41;0.30;99.90
6439;DHT22;3252;52.540;13.290;2022-11-20T02:48:43;0.20;99.90
6439;DHT22;3252;52.540;13.290;2022-11-20T02:50:46;0.20;99.90
6439;DHT22;3252;52.540;13.290;2022-11-20T02:52:48;0.20;99.90
6439;DHT22;3252;52.540;13.290;2022-11-20T02:54:51;0.20;99.90
6439;DHT22;3252;52.540;13.290;2022-11-20T02:56:55;0.30;99.90
6439;DHT22;3252;52.540;13.290;2022-11-20T02:58:58;0.30;99.90
6439;DHT22;3252;52.540;13.290;2022-11-20T03:01:00;0.20;99.90
6439;DHT22;3252;52.540;13.290;2022-11-20T03:03:02;0.20;99.90
6439;DHT22;3252;52.540;13.290;2022-11-20T03:05:05;0.20;99.90
6439;DHT22;3252;52.540;13.290;2022-11-20T03:07:08;0.20;99.90
6439;DHT22;3252;52.540;13.290;2022-11-20T03:09:12;0.30;99.90
6439;DHT22;3252;52.540;13.290;2022-11-20T03:11:15;0.30;99.90
6439;DHT22;3252;52.540;13.290;2022-11-20T03:13:19;0.30;99.90
6439;DHT22;3252;52.540;13.290;2022-11-20T03:15:28;0.30;99.90
6439;DHT22;3252;52.540;13.290;2022-11-20T03:17:31;0.30;99.90
6439;DHT22;3252;52.540;13.290;2022-11-20T03:19:34;0.30;99.90
6439;DHT22;3252;52.540;13.290;2022-11-20T03:21:36;0.40;99.90
6439;DHT22;3252;52.540;13.290;2022-11-20T03:23:39;0.40;99.90
6439;DHT22;3252;52.540;13.290;2022-11-20T03:25:43;0.40;99.90
6439;DHT22;3252;52.540;13.290;2022-11-20T03:27:46;0.40;99.90
6439;DHT22;3252;52.540;13.290;2022-11-20T03:29:50;0.40;99.90
6439;DHT22;3252;52.540;13.290;2022-11-20T03:31:52;0.40;99.90
6439;DHT22;3252;52.540;13.290;2022-11-20T03:33:56;0.40;99.90
6439;DHT22;3252;52.540;13.290;2022-11-20T03:36:01;0.50;99.90
6439;DHT22;3252;52.540;13.290;2022-11-20T03:38:05;0.50;99.90
6439;DHT22;3252;52.540;13.290;2022-11-20T03:40:08;0.40;99.90
6439;DHT22;3252;52.540;13.290;2022-11-20T03:42:11;0.40;99.90
6439;DHT22;3252;52.540;13.290;2022-11-20T03:44:28;0.40;99.90
6439;DHT22;3252;52.540;13.290;2022-11-20T03:46:34;0.50;99.90
6439;DHT22;3252;52.540;13.290;2022-11-20T03:48:36;0.50;99.90
6439;DHT22;3252;52.540;13.290;2022-11-20T03:50:40;0.40;99.90
6439;DHT22;3252;52.540;13.290;2022-11-20T03:52:44;0.50;99.90
6439;DHT22;3252;52.540;13.290;2022-11-20T03:54:46;0.40;99.90
6439;DHT22;3252;52.540;13.290;2022-11-20T03:56:49;0.40;99.90
6439;DHT22;3252;52.540;13.290;2022-11-20T03:58:51;0.40;99.90
6439;DHT22;3252;52.540;13.290;2022-11-20T04:00:54;0.40;99.90
6439;DHT22;3252;52.540;13.290;2022-11-20T04:02:59;0.30;99.90
6439;DHT22;3252;52.540;13.290;2022-11-20T04:05:01;0.30;99.90
6439;DHT22;3252;52.540;13.290;2022-11-20T04:07:04;0.30;99.90
6439;DHT22;3252;52.540;13.290;2022-11-20T04:09:06;0.30;99.90
6439;DHT22;3252;52.540;13.290;2022-11-20T04:11:16;0.30;99.90
6439;DHT22;3252;52.540;13.290;2022-11-20T04:13:19;0.30;99.90
6439;DHT22;3252;52.540;13.290;2022-11-20T04:15:21;0.30;99.90
6439;DHT22;3252;52.540;13.290;2022-11-20T04:17:24;0.20;99.90
6439;DHT22;3252;52.540;13.290;2022-11-20T04:19:30;0.20;99.90
6439;DHT22;3252;52.540;13.290;2022-11-20T04:21:33;0.20;99.90
6439;DHT22;3252;52.540;13.290;2022-11-20T04:23:35;0.20;99.90
6439;DHT22;3252;52.540;13.290;2022-11-20T04:25:38;0.10;99.90
6439;DHT22;3252;52.540;13.290;2022-11-20T04:27:40;0.10;99.90
6439;DHT22;3252;52.540;13.290;2022-11-20T04:29:42;0.20;99.90
6439;DHT22;3252;52.540;13.290;2022-11-20T04:31:47;0.10;99.90
6439;DHT22;3252;52.540;13.290;2022-11-20T04:33:52;0.10;99.90
6439;DHT22;3252;52.540;13.290;2022-11-20T04:36:02;0.10;99.90
6439;DHT22;3252;52.540;13.290;2022-11-20T04:38:20;0.10;99.90
6439;DHT22;3252;52.540;13.290;2022-11-20T04:41:11;0.20;99.90
6439;DHT22;3252;52.540;13.290;2022-11-20T04:43:38;0.20;99.90
6439;DHT22;3252;52.540;13.290;2022-11-20T04:45:58;0.20;99.90
6439;DHT22;3252;52.540;13.290;2022-11-20T04:48:09;0.20;99.90
6439;DHT22;3252;52.540;13.290;2022-11-20T04:50:12;0.20;99.90
6439;DHT22;3252;52.540;13.290;2022-11-20T04:52:16;0.20;99.90
6439;DHT22;3252;52.540;13.290;2022-11-20T04:54:18;0.20;99.90
6439;DHT22;3252;52.540;13.290;2022-11-20T04:56:21;0.20;99.90
6439;DHT22;3252;52.540;13.290;2022-11-20T04:58:25;0.20;99.90
6439;DHT22;3252;52.540;13.290;2022-11-20T05:00:27;0.20;99.90
6439;DHT22;3252;52.540;13.290;2022-11-20T05:02:31;0.30;99.90
6439;DHT22;3252;52.540;13.290;2022-11-20T05:04:35;0.20;99.90
6439;DHT22;3252;52.540;13.290;2022-11-20T05:06:37;0.20;99.90
6439;DHT22;3252;52.540;13.290;2022-11-20T05:08:41;0.20;99.90
6439;DHT22;3252;52.540;13.290;2022-11-20T05:10:46;0.20;99.90
6439;DHT22;3252;52.540;13.290;2022-11-20T05:12:51;0.30;99.90
6439;DHT22;3252;52.540;13.290;2022-11-20T05:14:54;0.30;99.90
6439;DHT22;3252;52.540;13.290;2022-11-20T05:16:57;0.20;99.90
6439;DHT22;3252;52.540;13.290;2022-11-20T05:19:00;0.30;99.90
6439;DHT22;3252;52.540;13.290;2022-11-20T05:21:04;0.30;99.90
6439;DHT22;3252;52.540;13.290;2022-11-20T05:23:11;0.30;99.90
6439;DHT22;3252;52.540;13.290;2022-11-20T05:25:16;0.40;99.90
6439;DHT22;3252;52.540;13.290;2022-11-20T05:27:20;0.40;99.90
6439;DHT22;3252;52.540;13.290;2022-11-20T05:29:23;0.40;99.90
6439;DHT22;3252;52.540;13.290;2022-11-20T05:31:26;0.40;99.90
6439;DHT22;3252;52.540;13.290;2022-11-20T05:33:28;0.40;99.90
6439;DHT22;3252;52.540;13.290;2022-11-20T05:35:31;0.40;99.90
6439;DHT22;3252;52.540;13.290;2022-11-20T05:37:33;0.40;99.90
6439;DHT22;3252;52.540;13.290;2022-11-20T05:39:36;0.50;99.90
6439;DHT22;3252;52.540;13.290;2022-11-20T05:41:40;0.50;99.90
6439;DHT22;3252;52.540;13.290;2022-11-20T05:43:48;0.50;99.90
6439;DHT22;3252;52.540;13.290;2022-11-20T05:45:54;0.50;99.90
6439;DHT22;3252;52.540;13.290;2022-11-20T05:47:59;0.50;99.90
6439;DHT22;3252;52.540;13.290;2022-11-20T05:50:03;0.50;99.90
6439;DHT22;3252;52.540;13.290;2022-11-20T05:52:05;0.50;99.90
6439;DHT22;3252;52.540;13.290;2022-11-20T05:54:08;0.50;99.90
6439;DHT22;3252;52.540;13.290;2022-11-20T05:56:12;0.50;99.90
6439;DHT22;3252;52.540;13.290;2022-11-20T05:58:16;0.50;99.90
6439;DHT22;3252;52.540;13.290;2022-11-20T06:00:19;0.60;99.90
6439;DHT22;3252;52.540;13.290;2022-11-20T06:02:21;0.60;99.90
6439;DHT22;3252;52.540;13.290;2022-11-20T06:04:25;0.50;99.90
6439;DHT22;3252;52.540;13.290;2022-11-20T06:06:27;0.50;99.90
6439;DHT22;3252;52.540;13.290;2022-11-20T06:08:30;0.50;99.90
6439;DHT22;3252;52.540;13.290;2022-11-20T06:10:33;0.50;99.90
6439;DHT22;3252;52.540;13.290;2022-11-20T06:12:37;0.60;99.90
6439;DHT22;3252;52.540;13.290;2022-11-20T06:14:42;0.60;99.90
6439;DHT22;3252;52.540;13.290;2022-11-20T06:16:44;0.60;99.90
6439;DHT22;3252;52.540;13.290;2022-11-20T06:18:47;0.50;99.90
6439;DHT22;3252;52.540;13.290;2022-11-20T06:20:49;0.60;99.90
6439;DHT22;3252;52.540;13.290;2022-11-20T06:22:52;0.50;99.90
6439;DHT22;3252;52.540;13.290;2022-11-20T06:24:54;0.50;99.90
6439;DHT22;3252;52.540;13.290;2022-11-20T06:26:57;0.50;99.90
6439;DHT22;3252;52.540;13.290;2022-11-20T06:28:59;0.60;99.90
6439;DHT22;3252;52.540;13.290;2022-11-20T06:31:04;0.60;99.90
6439;DHT22;3252;52.540;13.290;2022-11-20T06:33:07;0.50;99.90
6439;DHT22;3252;52.540;13.290;2022-11-20T06:35:12;0.50;99.90
6439;DHT22;3252;52.540;13.290;2022-11-20T06:37:18;0.50;99.90
6439;DHT22;3252;52.540;13.290;2022-11-20T06:39:21;0.50;99.90
6439;DHT22;3252;52.540;13.290;2022-11-20T06:41:24;0.50;99.90
6439;DHT22;3252;52.540;13.290;2022-11-20T06:43:28;0.50;99.90
6439;DHT22;3252;52.540;13.290;2022-11-20T06:45:30;0.50;99.90
6439;DHT22;3252;52.540;13.290;2022-11-20T06:47:34;0.50;99.90
6439;DHT22;3252;52.540;13.290;2022-11-20T06:49:37;0.40;99.90
6439;DHT22;3252;52.540;13.290;2022-11-20T06:51:42;0.40;99.90
6439;DHT22;3252;52.540;13.290;2022-11-20T06:53:46;0.50;99.90
6439;DHT22;3252;52.540;13.290;2022-11-20T06:55:51;0.50;99.90
6439;DHT22;3252;52.540;13.290;2022-11-20T06:57:55;0.50;99.90
6439;DHT22;3252;52.540;13.290;2022-11-20T06:59:57;0.50;99.90
6439;DHT22;3252;52.540;13.290;2022-11-20T07:02:00;0.50;99.90
6439;DHT22;3252;52.540;13.290;2022-11-20T07:04:04;0.60;99.90
6439;DHT22;3252;52.540;13.290;2022-11-20T07:06:07;0.60;99.90
6439;DHT22;3252;52.540;13.290;2022-11-20T07:08:09;0.50;99.90
6439;DHT22;3252;52.540;13.290;2022-11-20T07:10:12;0.60;99.90
6439;DHT22;3252;52.540;13.290;2022-11-20T07:12:15;0.60;99.90
6439;DHT22;3252;52.540;13.290;2022-11-20T07:14:17;0.60;99.90
6439;DHT22;3252;52.540;13.290;2022-11-20T07:16:20;0.60;99.90
6439;DHT22;3252;52.540;13.290;2022-11-20T07:18:22;0.60;99.90
6439;DHT22;3252;52.540;13.290;2022-11-20T07:20:26;0.60;99.90
6439;DHT22;3252;52.540;13.290;2022-11-20T07:22:28;0.70;99.90
6439;DHT22;3252;52.540;13.290;2022-11-20T07:24:31;0.70;99.90
6439;DHT22;3252;52.540;13.290;2022-11-20T07:26:35;0.60;99.90
6439;DHT22;3252;52.540;13.290;2022-11-20T07:28:37;0.70;99.90
6439;DHT22;3252;52.540;13.290;2022-11-20T07:30:40;0.70;99.90
6439;DHT22;3252;52.540;13.290;2022-11-20T07:32:46;0.70;99.90
6439;DHT22;3252;52.540;13.290;2022-11-20T07:34:49;0.70;99.90
6439;DHT22;3252;52.540;13.290;2022-11-20T07:36:52;0.70;99.90
6439;DHT22;3252;52.540;13.290;2022-11-20T07:38:55;0.70;99.90
6439;DHT22;3252;52.540;13.290;2022-11-20T07:40:58;0.70;99.90
6439;DHT22;3252;52.540;13.290;2022-11-20T07:43:02;0.70;99.90
6439;DHT22;3252;52.540;13.290;2022-11-20T07:45:05;0.80;99.90
6439;DHT22;3252;52.540;13.290;2022-11-20T07:47:07;0.80;99.90
6439;DHT22;3252;52.540;13.290;2022-11-20T07:49:09;0.90;99.90
6439;DHT22;3252;52.540;13.290;2022-11-20T07:51:11;0.90;99.90
6439;DHT22;3252;52.540;13.290;2022-11-20T07:53:15;0.90;99.90
6439;DHT22;3252;52.540;13.290;2022-11-20T07:55:21;0.90;99.90
6439;DHT22;3252;52.540;13.290;2022-11-20T07:57:23;0.80;99.90
6439;DHT22;3252;52.540;13.290;2022-11-20T07:59:25;0.80;99.90
6439;DHT22;3252;52.540;13.290;2022-11-20T08:01:27;0.90;99.90
6439;DHT22;3252;52.540;13.290;2022-11-20T08:03:29;0.80;99.90
6439;DHT22;3252;52.540;13.290;2022-11-20T08:05:32;0.70;99.90
6439;DHT22;3252;52.540;13.290;2022-11-20T08:07:38;0.70;99.90
6439;DHT22;3252;52.540;13.290;2022-11-20T08:09:42;0.60;99.90
6439;DHT22;3252;52.540;13.290;2022-11-20T08:11:44;0.60;99.90
6439;DHT22;3252;52.540;13.290;2022-11-20T08:14:15;0.60;99.90
6439;DHT22;3252;52.540;13.290;2022-11-20T08:16:17;0.60;99.90
6439;DHT22;3252;52.540;13.290;2022-11-20T08:18:19;0.70;99.90
6439;DHT22;3252;52.540;13.290;2022-11-20T08:20:22;0.70;99.90
6439;DHT22;3252;52.540;13.290;2022-11-20T08:22:24;0.70;99.90
6439;DHT22;3252;52.540;13.290;2022-11-20T08:24:27;0.70;99.90
6439;DHT22;3252;52.540;13.290;2022-11-20T08:26:30;0.70;99.90
6439;DHT22;3252;52.540;13.290;2022-11-20T08:28:33;0.60;99.90
6439;DHT22;3252;52.540;13.290;2022-11-20T08:30:35;0.60;99.90
6439;DHT22;3252;52.540;13.290;2022-11-20T08:32:38;0.60;99.90
6439;DHT22;3252;52.540;13.290;2022-11-20T08:34:40;0.50;99.90
6439;DHT22;3252;52.540;13.290;2022-11-20T08:36:42;0.50;99.90
6439;DHT22;3252;52.540;13.290;2022-11-20T08:38:47;0.50;99.90
6439;DHT22;3252;52.540;13.290;2022-11-20T08:40:50;0.50;99.90
6439;DHT22;3252;52.540;13.290;2022-11-20T08:43:07;0.60;99.90
6439;DHT22;3252;52.540;13.290;2022-11-20T08:45:09;0.70;99.90
6439;DHT22;3252;52.540;13.290;2022-11-20T08:47:11;0.70;99.90
6439;DHT22;3252;52.540;13.290;2022-11-20T08:49:14;0.70;99.90
6439;DHT22;3252;52.540;13.290;2022-11-20T08:51:18;0.80;99.90
6439;DHT22;3252;52.540;13.290;2022-11-20T08:53:20;0.90;99.90
6439;DHT22;3252;52.540;13.290;2022-11-20T08:55:22;1.00;99.90
6439;DHT22;3252;52.540;13.290;2022-11-20T08:57:24;0.90;99.90
6439;DHT22;3252;52.540;13.290;2022-11-20T08:59:28;0.90;99.90
6439;DHT22;3252;52.540;13.290;2022-11-20T09:01:31;1.00;99.90
6439;DHT22;3252;52.540;13.290;2022-11-20T09:03:33;1.00;99.90
6439;DHT22;3252;52.540;13.290;2022-11-20T09:05:36;1.10;99.90
6439;DHT22;3252;52.540;13.290;2022-11-20T09:07:38;1.10;99.90
6439;DHT22;3252;52.540;13.290;2022-11-20T09:09:41;1.00;99.90
6439;DHT22;3252;52.540;13.290;2022-11-20T09:11:43;0.90;99.90
6439;DHT22;3252;52.540;13.290;2022-11-20T09:13:45;0.90;99.90
6439;DHT22;3252;52.540;13.290;2022-11-20T09:15:53;1.00;99.90
6439;DHT22;3252;52.540;13.290;2022-11-20T09:17:58;1.00;99.90
6439;DHT22;3252;52.540;13.290;2022-11-20T09:20:00;1.10;99.90
6439;DHT22;3252;52.540;13.290;2022-11-20T09:22:02;1.10;99.90
6439;DHT22;3252;52.540;13.290;2022-11-20T09:24:05;1.10;99.90
6439;DHT22;3252;52.540;13.290;2022-11-20T09:26:10;1.20;99.90
6439;DHT22;3252;52.540;13.290;2022-11-20T09:28:13;1.20;99.90
6439;DHT22;3252;52.540;13.290;2022-11-20T09:30:15;1.20;99.90
6439;DHT22;3252;52.540;13.290;2022-11-20T09:32:19;1.20;99.90
6439;DHT22;3252;52.540;13.290;2022-11-20T09:34:21;1.20;99.90
6439;DHT22;3252;52.540;13.290;2022-11-20T09:36:23;1.30;99.90
6439;DHT22;3252;52.540;13.290;2022-11-20T09:38:25;1.30;99.90
6439;DHT22;3252;52.540;13.290;2022-11-20T09:40:28;1.30;99.90
6439;DHT22;3252;52.540;13.290;2022-11-20T09:42:36;1.30;99.90
6439;DHT22;3252;52.540;13.290;2022-11-20T09:45:03;1.30;99.90
6439;DHT22;3252;52.540;13.290;2022-11-20T09:47:11;1.30;99.90
6439;DHT22;3252;52.540;13.290;2022-11-20T09:49:25;1.40;99.90
6439;DHT22;3252;52.540;13.290;2022-11-20T09:51:37;1.40;99.90
6439;DHT22;3252;52.540;13.290;2022-11-20T09:53:53;1.40;99.90
6439;DHT22;3252;52.540;13.290;2022-11-20T09:56:01;1.40;99.90
6439;DHT22;3252;52.540;13.290;2022-11-20T09:58:06;1.50;99.90
6439;DHT22;3252;52.540;13.290;2022-11-20T10:00:11;1.60;99.90
6439;DHT22;3252;52.540;13.290;2022-11-20T10:02:28;1.60;99.90
6439;DHT22;3252;52.540;13.290;2022-11-20T10:04:33;1.60;99.90
6439;DHT22;3252;52.540;13.290;2022-11-20T10:06:41;1.50;99.90
6439;DHT22;3252;52.540;13.290;2022-11-20T10:08:50;1.60;99.90
6439;DHT22;3252;52.540;13.290;2022-11-20T10:11:13;1.50;99.90
6439;DHT22;3252;52.540;13.290;2022-11-20T10:13:35;1.50;99.90
6439;DHT22;3252;52.540;13.290;2022-11-20T10:15:47;1.40;99.90
6439;DHT22;3252;52.540;13.290;2022-11-20T10:18:03;1.40;99.90
6439;DHT22;3252;52.540;13.290;2022-11-20T10:20:16;1.30;99.90
6439;DHT22;3252;52.540;13.290;2022-11-20T10:22:34;1.40;99.90
6439;DHT22;3252;52.540;13.290;2022-11-20T10:24:48;1.40;99.90
6439;DHT22;3252;52.540;13.290;2022-11-20T10:27:00;1.40;99.90
6439;DHT22;3252;52.540;13.290;2022-11-20T10:29:09;1.50;99.90
6439;DHT22;3252;52.540;13.290;2022-11-20T10:31:22;1.50;99.90
6439;DHT22;3252;52.540;13.290;2022-11-20T10:33:34;1.50;99.90
6439;DHT22;3252;52.540;13.290;2022-11-20T10:35:42;1.50;99.90
6439;DHT22;3252;52.540;13.290;2022-11-20T10:37:49;1.60;99.90
6439;DHT22;3252;52.540;13.290;2022-11-20T10:39:56;1.60;99.90
6439;DHT22;3252;52.540;13.290;2022-11-20T10:42:01;1.80;99.90
6439;DHT22;3252;52.540;13.290;2022-11-20T10:44:12;1.80;99.90
6439;DHT22;3252;52.540;13.290;2022-11-20T10:46:18;1.80;99.90
6439;DHT22;3252;52.540;13.290;2022-11-20T10:48:23;1.80;99.90
6439;DHT22;3252;52.540;13.290;2022-11-20T10:50:26;1.90;99.90
6439;DHT22;3252;52.540;13.290;2022-11-20T10:52:41;2.00;99.90
6439;DHT22;3252;52.540;13.290;2022-11-20T10:54:50;2.10;99.90
6439;DHT22;3252;52.540;13.290;2022-11-20T10:56:56;2.20;99.90
6439;DHT22;3252;52.540;13.290;2022-11-20T11:01:43;2.10;99.90
6439;DHT22;3252;52.540;13.290;2022-11-20T11:03:45;2.00;99.90
6439;DHT22;3252;52.540;13.290;2022-11-20T11:05:50;2.20;99.90
6439;DHT22;3252;52.540;13.290;2022-11-20T11:07:57;2.00;99.90
6439;DHT22;3252;52.540;13.290;2022-11-20T11:10:00;2.00;99.90
6439;DHT22;3252;52.540;13.290;2022-11-20T11:12:07;2.10;99.90
6439;DHT22;3252;52.540;13.290;2022-11-20T11:14:12;2.20;99.90
6439;DHT22;3252;52.540;13.290;2022-11-20T11:16:21;2.20;99.90
6439;DHT22;3252;52.540;13.290;2022-11-20T11:18:25;2.20;99.90
6439;DHT22;3252;52.540;13.290;2022-11-20T11:20:28;2.00;99.90
6439;DHT22;3252;52.540;13.290;2022-11-20T11:22:32;2.00;99.90
6439;DHT22;3252;52.540;13.290;2022-11-20T11:24:36;2.10;99.90
6439;DHT22;3252;52.540;13.290;2022-11-20T11:26:38;2.10;99.90
6439;DHT22;3252;52.540;13.290;2022-11-20T11:28:40;2.20;99.90
6439;DHT22;3252;52.540;13.290;2022-11-20T11:30:43;2.20;99.90
6439;DHT22;3252;52.540;13.290;2022-11-20T11:32:46;2.20;99.90
6439;DHT22;3252;52.540;13.290;2022-11-20T11:34:59;2.10;99.90
6439;DHT22;3252;52.540;13.290;2022-11-20T11:37:02;1.90;99.90
6439;DHT22;3252;52.540;13.290;2022-11-20T11:39:15;1.90;99.90
6439;DHT22;3252;52.540;13.290;2022-11-20T11:41:23;1.80;99.90
6439;DHT22;3252;52.540;13.290;2022-11-20T11:43:29;1.90;99.90
6439;DHT22;3252;52.540;13.290;2022-11-20T11:45:52;1.90;99.90
6439;DHT22;3252;52.540;13.290;2022-11-20T11:47:57;2.00;99.90
6439;DHT22;3252;52.540;13.290;2022-11-20T11:50:15;1.70;99.90
6439;DHT22;3252;52.540;13.290;2022-11-20T11:52:20;1.70;99.90
6439;DHT22;3252;52.540;13.290;2022-11-20T11:54:26;1.70;99.90
6439;DHT22;3252;52.540;13.290;2022-11-20T11:56:33;1.60;99.90
6439;DHT22;3252;52.540;13.290;2022-11-20T11:58:43;1.50;99.90
6439;DHT22;3252;52.540;13.290;2022-11-20T12:00:53;1.50;99.90
6439;DHT22;3252;52.540;13.290;2022-11-20T12:03:03;1.50;99.90
6439;DHT22;3252;52.540;13.290;2022-11-20T12:05:16;1.50;99.90
6439;DHT22;3252;52.540;13.290;2022-11-20T12:07:25;1.60;99.90
6439;DHT22;3252;52.540;13.290;2022-11-20T12:09:35;1.60;99.90
6439;DHT22;3252;52.540;13.290;2022-11-20T12:11:45;1.60;99.90
6439;DHT22;3252;52.540;13.290;2022-11-20T12:13:53;1.60;99.90
6439;DHT22;3252;52.540;13.290;2022-11-20T12:15:56;1.70;99.90
6439;DHT22;3252;52.540;13.290;2022-11-20T12:17:58;1.70;99.90
6439;DHT22;3252;52.540;13.290;2022-11-20T12:20:00;1.80;99.90
6439;DHT22;3252;52.540;13.290;2022-11-20T12:22:10;1.90;99.90
6439;DHT22;3252;52.540;13.290;2022-11-20T12:24:32;1.90;99.90
6439;DHT22;3252;52.540;13.290;2022-11-20T12:26:46;2.00;99.90
6439;DHT22;3252;52.540;13.290;2022-11-20T12:29:02;2.10;99.90
6439;DHT22;3252;52.540;13.290;2022-11-20T12:31:34;2.10;99.90
6439;DHT22;3252;52.540;13.290;2022-11-20T12:33:54;2.10;99.90
6439;DHT22;3252;52.540;13.290;2022-11-20T12:36:07;2.20;99.90
6439;DHT22;3252;52.540;13.290;2022-11-20T12:40:46;2.10;99.90
6439;DHT22;3252;52.540;13.290;2022-11-20T12:43:01;2.10;99.90
6439;DHT22;3252;52.540;13.290;2022-11-20T12:45:42;2.20;99.90
6439;DHT22;3252;52.540;13.290;2022-11-20T12:48:14;2.20;99.90
6439;DHT22;3252;52.540;13.290;2022-11-20T12:50:28;2.30;99.90
6439;DHT22;3252;52.540;13.290;2022-11-20T12:52:40;2.40;99.90
6439;DHT22;3252;52.540;13.290;2022-11-20T12:55:00;2.40;99.90
6439;DHT22;3252;52.540;13.290;2022-11-20T12:57:09;2.30;99.90
6439;DHT22;3252;52.540;13.290;2022-11-20T12:59:27;2.20;99.90
6439;DHT22;3252;52.540;13.290;2022-11-20T13:01:39;2.20;99.90
6439;DHT22;3252;52.540;13.290;2022-11-20T13:03:47;2.20;99.90
6439;DHT22;3252;52.540;13.290;2022-11-20T13:05:59;2.10;99.90
6439;DHT22;3252;52.540;13.290;2022-11-20T13:08:03;2.20;99.90
6439;DHT22;3252;52.540;13.290;2022-11-20T13:10:16;2.20;99.90
6439;DHT22;3252;52.540;13.290;2022-11-20T13:12:25;2.10;99.90
6439;DHT22;3252;52.540;13.290;2022-11-20T13:14:38;2.10;99.90
6439;DHT22;3252;52.540;13.290;2022-11-20T13:16:48;2.00;99.90
6439;DHT22;3252;52.540;13.290;2022-11-20T13:18:52;1.90;99.90
6439;DHT22;3252;52.540;13.290;2022-11-20T13:20:55;2.10;99.90
6439;DHT22;3252;52.540;13.290;2022-11-20T13:22:57;2.20;99.90
6439;DHT22;3252;52.540;13.290;2022-11-20T13:25:00;2.30;99.90
6439;DHT22;3252;52.540;13.290;2022-11-20T13:27:19;2.30;99.90
6439;DHT22;3252;52.540;13.290;2022-11-20T13:29:22;2.00;99.90
6439;DHT22;3252;52.540;13.290;2022-11-20T13:31:35;2.00;99.90
6439;DHT22;3252;52.540;13.290;2022-11-20T13:33:38;1.90;99.90
6439;DHT22;3252;52.540;13.290;2022-11-20T13:35:42;1.80;99.90
6439;DHT22;3252;52.540;13.290;2022-11-20T13:37:44;1.70;99.90
6439;DHT22;3252;52.540;13.290;2022-11-20T13:39:46;1.60;99.90
6439;DHT22;3252;52.540;13.290;2022-11-20T13:41:54;1.60;99.90
6439;DHT22;3252;52.540;13.290;2022-11-20T13:44:06;1.60;99.90
6439;DHT22;3252;52.540;13.290;2022-11-20T13:46:11;1.60;99.90